sensor_id;sensor_type;location;lat;lon;timestamp;pressure;altitude;pressure_sealevel;temperature;humidity
77299;BME280;66361;52.034;20.656;2023-05-28T00:01:40;100582.84;;;4.39;100.00
77299;BME280;66361;52.034;20.656;2023-05-28T00:05:43;100589.06;;;4.35;100.00
77299;BME280;66361;52.034;20.656;2023-05-28T00:09:47;100596.19;;;4.30;100.00
77299;BME280;66361;52.034;20.656;2023-05-28T00:13:50;100582.44;;;4.25;100.00
77299;BME280;66361;52.034;20.656;2023-05-28T00:17:55;100585.97;;;4.23;100.00
77299;BME280;66361;52.034;20.656;2023-05-28T00:21:59;100582.59;;;4.19;100.00
77299;BME280;66361;52.034;20.656;2023-05-28T00:26:02;100588.81;;;4.15;100.00
77299;BME280;66361;52.034;20.656;2023-05-28T00:30:06;100576.78;;;4.10;100.00
77299;BME280;66361;52.034;20.656;2023-05-28T00:34:10;100574.28;;;4.07;100.00
77299;BME280;66361;52.034;20.656;2023-05-28T00:38:13;100581.34;;;4.03;100.00
77299;BME280;66361;52.034;20.656;2023-05-28T00:42:16;100568.47;;;3.97;100.00
77299;BME280;66361;52.034;20.656;2023-05-28T00:46:21;100568.53;;;3.96;100.00
77299;BME280;66361;52.034;20.656;2023-05-28T00:50:27;100568.59;;;3.92;100.00
77299;BME280;66361;52.034;20.656;2023-05-28T00:54:30;100571.28;;;3.89;100.00
77299;BME280;66361;52.034;20.656;2023-05-28T00:58:33;100574.00;;;3.86;100.00
77299;BME280;66361;52.034;20.656;2023-05-28T01:02:37;100568.00;;;3.83;100.00
77299;BME280;66361;52.034;20.656;2023-05-28T01:06:43;100577.69;;;3.79;100.00
77299;BME280;66361;52.034;20.656;2023-05-28T01:10:46;100570.84;;;3.75;100.00
77299;BME280;66361;52.034;20.656;2023-05-28T01:14:49;100570.16;;;3.69;100.00
77299;BME280;66361;52.034;20.656;2023-05-28T01:18:54;100565.03;;;3.66;100.00
77299;BME280;66361;52.034;20.656;2023-05-28T01:23:06;100550.34;;;3.62;100.00
77299;BME280;66361;52.034;20.656;2023-05-28T01:27:11;100554.03;;;3.55;100.00
77299;BME280;66361;52.034;20.656;2023-05-28T01:31:16;100543.63;;;3.53;100.00
77299;BME280;66361;52.034;20.656;2023-05-28T01:35:20;100548.00;;;3.53;100.00
77299;BME280;66361;52.034;20.656;2023-05-28T01:39:25;100537.75;;;3.45;100.00
77299;BME280;66361;52.034;20.656;2023-05-28T01:43:31;100539.59;;;3.41;100.00
77299;BME280;66361;52.034;20.656;2023-05-28T01:47:34;100530.13;;;3.39;100.00
77299;BME280;66361;52.034;20.656;2023-05-28T01:51:38;100531.78;;;3.41;100.00
77299;BME280;66361;52.034;20.656;2023-05-28T01:55:41;100532.72;;;3.39;100.00
77299;BME280;66361;52.034;20.656;2023-05-28T01:59:45;100525.00;;;3.36;100.00
77299;BME280;66361;52.034;20.656;2023-05-28T02:03:48;100525.03;;;3.33;100.00
77299;BME280;66361;52.034;20.656;2023-05-28T02:07:51;100521.72;;;3.28;100.00
77299;BME280;66361;52.034;20.656;2023-05-28T02:11:55;100515.78;;;3.23;100.00
77299;BME280;66361;52.034;20.656;2023-05-28T02:15:59;100517.59;;;3.21;100.00
77299;BME280;66361;52.034;20.656;2023-05-28T02:20:03;100513.34;;;3.17;100.00
77299;BME280;66361;52.034;20.656;2023-05-28T02:24:07;100517.78;;;3.13;100.00
77299;BME280;66361;52.034;20.656;2023-05-28T02:28:10;100514.41;;;3.10;100.00
77299;BME280;66361;52.034;20.656;2023-05-28T02:32:14;100514.44;;;3.08;100.00
77299;BME280;66361;52.034;20.656;2023-05-28T02:36:17;100506.63;;;3.07;100.00
77299;BME280;66361;52.034;20.656;2023-05-28T02:40:22;100503.13;;;3.09;100.00
77299;BME280;66361;52.034;20.656;2023-05-28T02:44:25;100508.34;;;3.09;100.00
77299;BME280;66361;52.034;20.656;2023-05-28T02:48:29;100505.56;;;3.14;100.00
77299;BME280;66361;52.034;20.656;2023-05-28T02:52:32;100509.00;;;3.16;100.00
77299;BME280;66361;52.034;20.656;2023-05-28T02:56:35;100514.97;;;3.21;100.00
77299;BME280;66361;52.034;20.656;2023-05-28T03:00:40;100522.53;;;3.30;100.00
77299;BME280;66361;52.034;20.656;2023-05-28T03:04:45;100522.22;;;3.40;100.00
77299;BME280;66361;52.034;20.656;2023-05-28T03:08:48;100518.50;;;3.51;100.00
77299;BME280;66361;52.034;20.656;2023-05-28T03:12:51;100523.31;;;3.64;100.00
77299;BME280;66361;52.034;20.656;2023-05-28T03:16:56;100527.31;;;3.76;100.00
77299;BME280;66361;52.034;20.656;2023-05-28T03:21:01;100525.16;;;3.90;100.00
77299;BME280;66361;52.034;20.656;2023-05-28T03:25:05;100527.41;;;4.02;100.00
77299;BME280;66361;52.034;20.656;2023-05-28T03:29:08;100525.19;;;4.18;100.00
77299;BME280;66361;52.034;20.656;2023-05-28T03:33:13;100520.25;;;4.36;100.00
77299;BME280;66361;52.034;20.656;2023-05-28T03:37:18;100521.25;;;4.59;100.00
77299;BME280;66361;52.034;20.656;2023-05-28T03:41:21;100528.28;;;4.83;100.00
77299;BME280;66361;52.034;20.656;2023-05-28T03:45:24;100528.25;;;5.09;100.00
77299;BME280;66361;52.034;20.656;2023-05-28T03:49:30;100527.41;;;5.33;100.00
77299;BME280;66361;52.034;20.656;2023-05-28T03:53:34;100525.44;;;5.63;100.00
77299;BME280;66361;52.034;20.656;2023-05-28T03:57:37;100532.94;;;5.96;99.58
77299;BME280;66361;52.034;20.656;2023-05-28T04:01:41;100530.19;;;6.22;98.30
77299;BME280;66361;52.034;20.656;2023-05-28T04:05:44;100531.72;;;6.49;95.89
77299;BME280;66361;52.034;20.656;2023-05-28T04:09:49;100534.72;;;6.82;94.71
77299;BME280;66361;52.034;20.656;2023-05-28T04:13:52;100536.56;;;7.42;92.37
77299;BME280;66361;52.034;20.656;2023-05-28T04:17:55;100526.06;;;8.90;84.54
77299;BME280;66361;52.034;20.656;2023-05-28T04:21:59;100526.09;;;10.68;75.59
77299;BME280;66361;52.034;20.656;2023-05-28T04:26:04;100527.25;;;12.23;68.82
77299;BME280;66361;52.034;20.656;2023-05-28T04:30:08;100520.97;;;13.69;63.35
77299;BME280;66361;52.034;20.656;2023-05-28T04:34:13;100520.13;;;14.90;56.93
77299;BME280;66361;52.034;20.656;2023-05-28T04:38:18;100518.78;;;16.21;50.25
77299;BME280;66361;52.034;20.656;2023-05-28T04:42:23;100522.59;;;16.93;48.99
77299;BME280;66361;52.034;20.656;2023-05-28T04:46:26;100521.16;;;17.42;46.24
77299;BME280;66361;52.034;20.656;2023-05-28T04:50:31;100518.34;;;18.34;40.71
77299;BME280;66361;52.034;20.656;2023-05-28T04:54:34;100527.31;;;19.31;37.86
77299;BME280;66361;52.034;20.656;2023-05-28T04:58:39;100528.72;;;19.35;39.62
77299;BME280;66361;52.034;20.656;2023-05-28T05:02:42;100525.16;;;19.73;36.81
77299;BME280;66361;52.034;20.656;2023-05-28T05:06:45;100532.66;;;20.61;35.16
77299;BME280;66361;52.034;20.656;2023-05-28T05:10:48;100540.19;;;21.71;33.37
77299;BME280;66361;52.034;20.656;2023-05-28T05:14:53;100531.75;;;22.18;30.91
77299;BME280;66361;52.034;20.656;2023-05-28T05:18:56;100528.78;;;22.37;31.91
77299;BME280;66361;52.034;20.656;2023-05-28T05:22:59;100529.97;;;21.75;31.50
77299;BME280;66361;52.034;20.656;2023-05-28T05:27:02;100521.16;;;22.16;31.90
77299;BME280;66361;52.034;20.656;2023-05-28T05:31:07;100520.22;;;23.48;30.00
77299;BME280;66361;52.034;20.656;2023-05-28T05:35:10;100529.72;;;24.07;29.44
77299;BME280;66361;52.034;20.656;2023-05-28T05:39:13;100528.63;;;24.72;27.20
77299;BME280;66361;52.034;20.656;2023-05-28T05:43:16;100528.31;;;25.72;25.78
77299;BME280;66361;52.034;20.656;2023-05-28T05:47:20;100528.00;;;25.90;25.74
77299;BME280;66361;52.034;20.656;2023-05-28T05:51:27;100519.25;;;25.05;26.41
77299;BME280;66361;52.034;20.656;2023-05-28T05:55:29;100510.25;;;25.73;24.88
77299;BME280;66361;52.034;20.656;2023-05-28T05:59:32;100518.81;;;26.35;25.48
77299;BME280;66361;52.034;20.656;2023-05-28T06:03:39;100519.28;;;27.10;24.88
77299;BME280;66361;52.034;20.656;2023-05-28T06:07:43;100527.91;;;26.78;23.98
77299;BME280;66361;52.034;20.656;2023-05-28T06:11:46;100523.56;;;26.98;21.15
77299;BME280;66361;52.034;20.656;2023-05-28T06:15:49;100518.81;;;27.49;22.60
77299;BME280;66361;52.034;20.656;2023-05-28T06:19:53;100526.78;;;27.29;22.38
77299;BME280;66361;52.034;20.656;2023-05-28T06:23:57;100528.75;;;27.91;22.09
77299;BME280;66361;52.034;20.656;2023-05-28T06:28:00;100523.78;;;28.35;22.49
77299;BME280;66361;52.034;20.656;2023-05-28T06:32:03;100530.28;;;29.02;19.64
77299;BME280;66361;52.034;20.656;2023-05-28T06:36:07;100530.47;;;28.94;20.43
77299;BME280;66361;52.034;20.656;2023-05-28T06:40:11;100528.22;;;29.17;19.76
77299;BME280;66361;52.034;20.656;2023-05-28T06:44:14;100518.00;;;29.19;20.43
77299;BME280;66361;52.034;20.656;2023-05-28T06:48:17;100534.97;;;28.19;20.67
77299;BME280;66361;52.034;20.656;2023-05-28T06:52:21;100525.59;;;28.69;19.75
77299;BME280;66361;52.034;20.656;2023-05-28T06:56:25;100524.88;;;29.08;20.17
77299;BME280;66361;52.034;20.656;2023-05-28T07:00:28;100520.38;;;30.25;18.29
77299;BME280;66361;52.034;20.656;2023-05-28T07:04:31;100527.38;;;30.02;17.70
77299;BME280;66361;52.034;20.656;2023-05-28T07:08:36;100513.97;;;29.02;18.27
77299;BME280;66361;52.034;20.656;2023-05-28T07:12:42;100515.28;;;29.58;18.70
77299;BME280;66361;52.034;20.656;2023-05-28T07:16:47;100518.63;;;29.47;19.99
77299;BME280;66361;52.034;20.656;2023-05-28T07:20:50;100513.53;;;29.05;18.52
77299;BME280;66361;52.034;20.656;2023-05-28T07:24:55;100511.88;;;29.96;19.99
77299;BME280;66361;52.034;20.656;2023-05-28T07:29:00;100509.38;;;29.88;16.49
77299;BME280;66361;52.034;20.656;2023-05-28T07:33:03;100500.56;;;30.63;17.61
77299;BME280;66361;52.034;20.656;2023-05-28T07:37:07;100495.19;;;29.13;17.34
77299;BME280;66361;52.034;20.656;2023-05-28T07:41:11;100485.53;;;28.98;18.42
77299;BME280;66361;52.034;20.656;2023-05-28T07:45:14;100494.38;;;29.32;18.14
77299;BME280;66361;52.034;20.656;2023-05-28T07:49:17;100489.28;;;30.53;17.25
77299;BME280;66361;52.034;20.656;2023-05-28T07:53:21;100490.66;;;30.24;16.68
77299;BME280;66361;52.034;20.656;2023-05-28T07:57:25;100496.69;;;30.77;15.53
77299;BME280;66361;52.034;20.656;2023-05-28T08:01:28;100494.28;;;28.73;17.04
77299;BME280;66361;52.034;20.656;2023-05-28T08:05:30;100490.59;;;29.60;15.68
77299;BME280;66361;52.034;20.656;2023-05-28T08:09:35;100494.69;;;28.29;18.18
77299;BME280;66361;52.034;20.656;2023-05-28T08:13:40;100478.72;;;30.18;16.03
77299;BME280;66361;52.034;20.656;2023-05-28T08:17:44;100486.09;;;31.00;16.20
77299;BME280;66361;52.034;20.656;2023-05-28T08:21:47;100490.09;;;30.60;16.39
77299;BME280;66361;52.034;20.656;2023-05-28T08:25:50;100471.00;;;30.98;14.96
77299;BME280;66361;52.034;20.656;2023-05-28T08:29:55;100485.22;;;30.17;15.88
77299;BME280;66361;52.034;20.656;2023-05-28T08:33:58;100466.56;;;29.11;16.64
77299;BME280;66361;52.034;20.656;2023-05-28T08:38:01;100477.75;;;30.00;17.99
77299;BME280;66361;52.034;20.656;2023-05-28T08:42:06;100474.00;;;29.88;16.52
77299;BME280;66361;52.034;20.656;2023-05-28T08:46:10;100462.22;;;30.07;17.50
77299;BME280;66361;52.034;20.656;2023-05-28T08:50:14;100457.22;;;30.04;18.27
77299;BME280;66361;52.034;20.656;2023-05-28T08:54:18;100465.34;;;30.10;16.59
77299;BME280;66361;52.034;20.656;2023-05-28T08:58:21;100459.53;;;30.00;16.78
77299;BME280;66361;52.034;20.656;2023-05-28T09:02:26;100460.25;;;29.43;17.79
77299;BME280;66361;52.034;20.656;2023-05-28T09:06:30;100463.72;;;28.52;18.01
77299;BME280;66361;52.034;20.656;2023-05-28T09:10:33;100456.94;;;28.41;18.06
77299;BME280;66361;52.034;20.656;2023-05-28T09:14:38;100452.50;;;28.74;18.28
77299;BME280;66361;52.034;20.656;2023-05-28T09:18:43;100457.69;;;26.98;20.22
77299;BME280;66361;52.034;20.656;2023-05-28T09:22:57;100458.28;;;28.04;21.28
77299;BME280;66361;52.034;20.656;2023-05-28T09:27:00;100450.00;;;27.50;18.98
77299;BME280;66361;52.034;20.656;2023-05-28T09:31:03;100448.66;;;27.39;19.88
77299;BME280;66361;52.034;20.656;2023-05-28T09:35:10;100444.69;;;26.86;21.87
77299;BME280;66361;52.034;20.656;2023-05-28T09:39:15;100429.81;;;26.25;24.08
77299;BME280;66361;52.034;20.656;2023-05-28T09:43:26;100422.69;;;26.39;21.03
77299;BME280;66361;52.034;20.656;2023-05-28T09:47:41;100424.94;;;25.99;23.81
77299;BME280;66361;52.034;20.656;2023-05-28T09:51:47;100415.88;;;26.07;20.87
77299;BME280;66361;52.034;20.656;2023-05-28T09:55:54;100412.06;;;25.87;23.51
77299;BME280;66361;52.034;20.656;2023-05-28T10:00:01;100402.59;;;26.12;22.51
77299;BME280;66361;52.034;20.656;2023-05-28T10:04:17;100406.28;;;25.61;22.41
77299;BME280;66361;52.034;20.656;2023-05-28T10:08:25;100400.56;;;26.14;21.07
77299;BME280;66361;52.034;20.656;2023-05-28T10:12:30;100402.38;;;25.11;23.00
77299;BME280;66361;52.034;20.656;2023-05-28T10:16:34;100402.19;;;25.65;21.38
77299;BME280;66361;52.034;20.656;2023-05-28T10:20:38;100405.34;;;25.97;21.29
77299;BME280;66361;52.034;20.656;2023-05-28T10:24:43;100389.41;;;25.73;27.24
77299;BME280;66361;52.034;20.656;2023-05-28T10:28:53;100388.41;;;25.74;22.80
77299;BME280;66361;52.034;20.656;2023-05-28T10:32:57;100384.47;;;25.18;22.80
77299;BME280;66361;52.034;20.656;2023-05-28T10:37:00;100383.97;;;24.77;22.19
77299;BME280;66361;52.034;20.656;2023-05-28T10:41:06;100379.75;;;25.12;24.31
77299;BME280;66361;52.034;20.656;2023-05-28T10:45:11;100374.06;;;25.59;24.72
77299;BME280;66361;52.034;20.656;2023-05-28T10:49:15;100367.31;;;25.84;24.15
77299;BME280;66361;52.034;20.656;2023-05-28T10:53:19;100362.03;;;25.47;22.11
77299;BME280;66361;52.034;20.656;2023-05-28T10:57:24;100355.66;;;25.11;22.85
77299;BME280;66361;52.034;20.656;2023-05-28T11:01:27;100367.78;;;25.15;22.80
77299;BME280;66361;52.034;20.656;2023-05-28T11:05:35;100344.97;;;24.80;23.84
77299;BME280;66361;52.034;20.656;2023-05-28T11:09:38;100359.59;;;24.85;24.24
77299;BME280;66361;52.034;20.656;2023-05-28T11:13:47;100348.00;;;24.39;27.54
77299;BME280;66361;52.034;20.656;2023-05-28T11:17:50;100346.91;;;24.71;26.22
77299;BME280;66361;52.034;20.656;2023-05-28T11:21:55;100343.28;;;24.79;25.54
77299;BME280;66361;52.034;20.656;2023-05-28T11:25:59;100344.00;;;24.95;24.42
77299;BME280;66361;52.034;20.656;2023-05-28T11:30:20;100353.00;;;24.50;24.40
77299;BME280;66361;52.034;20.656;2023-05-28T11:34:22;100347.84;;;24.33;26.57
77299;BME280;66361;52.034;20.656;2023-05-28T11:38:26;100341.00;;;23.99;24.75
77299;BME280;66361;52.034;20.656;2023-05-28T11:42:29;100340.00;;;24.00;27.39
77299;BME280;66361;52.034;20.656;2023-05-28T11:46:33;100337.53;;;24.36;26.49
77299;BME280;66361;52.034;20.656;2023-05-28T11:50:37;100320.63;;;24.50;28.02
77299;BME280;66361;52.034;20.656;2023-05-28T11:54:40;100321.53;;;24.80;26.42
77299;BME280;66361;52.034;20.656;2023-05-28T11:58:45;100326.91;;;24.66;25.27
77299;BME280;66361;52.034;20.656;2023-05-28T12:02:52;100324.25;;;24.35;27.18
77299;BME280;66361;52.034;20.656;2023-05-28T12:06:56;100318.63;;;24.82;28.91
77299;BME280;66361;52.034;20.656;2023-05-28T12:11:00;100314.50;;;24.71;24.69
77299;BME280;66361;52.034;20.656;2023-05-28T12:15:08;100316.63;;;24.16;27.23
77299;BME280;66361;52.034;20.656;2023-05-28T12:19:14;100306.75;;;24.31;26.23
77299;BME280;66361;52.034;20.656;2023-05-28T12:23:20;100294.50;;;23.67;26.73
77299;BME280;66361;52.034;20.656;2023-05-28T12:27:23;100304.56;;;23.42;25.63
77299;BME280;66361;52.034;20.656;2023-05-28T12:31:27;100291.41;;;23.08;27.23
77299;BME280;66361;52.034;20.656;2023-05-28T12:35:31;100295.66;;;23.33;25.54
77299;BME280;66361;52.034;20.656;2023-05-28T12:39:35;100291.91;;;23.42;28.07
77299;BME280;66361;52.034;20.656;2023-05-28T12:43:38;100283.44;;;23.53;27.72
77299;BME280;66361;52.034;20.656;2023-05-28T12:47:42;100289.34;;;24.10;28.19
77299;BME280;66361;52.034;20.656;2023-05-28T12:51:46;100284.56;;;23.75;26.24
77299;BME280;66361;52.034;20.656;2023-05-28T12:55:50;100287.25;;;23.67;26.54
77299;BME280;66361;52.034;20.656;2023-05-28T12:59:53;100279.75;;;23.54;27.40
77299;BME280;66361;52.034;20.656;2023-05-28T13:03:56;100279.25;;;23.12;28.11
77299;BME280;66361;52.034;20.656;2023-05-28T13:08:00;100262.47;;;23.41;28.61
77299;BME280;66361;52.034;20.656;2023-05-28T13:12:05;100260.91;;;23.46;28.79
77299;BME280;66361;52.034;20.656;2023-05-28T13:16:08;100264.38;;;23.71;27.09
77299;BME280;66361;52.034;20.656;2023-05-28T13:20:13;100265.03;;;23.34;26.41
77299;BME280;66361;52.034;20.656;2023-05-28T13:24:19;100263.41;;;23.17;27.12
77299;BME280;66361;52.034;20.656;2023-05-28T13:28:22;100245.16;;;23.35;26.86
77299;BME280;66361;52.034;20.656;2023-05-28T13:32:25;100257.56;;;23.05;26.94
77299;BME280;66361;52.034;20.656;2023-05-28T13:36:29;100243.66;;;22.78;28.90
77299;BME280;66361;52.034;20.656;2023-05-28T13:40:34;100237.88;;;22.17;28.17
77299;BME280;66361;52.034;20.656;2023-05-28T13:44:39;100238.53;;;22.36;27.41
77299;BME280;66361;52.034;20.656;2023-05-28T13:48:43;100235.69;;;22.21;28.66
77299;BME280;66361;52.034;20.656;2023-05-28T13:52:46;100240.53;;;22.50;30.70
77299;BME280;66361;52.034;20.656;2023-05-28T13:56:51;100240.28;;;22.76;28.02
77299;BME280;66361;52.034;20.656;2023-05-28T14:00:54;100229.59;;;22.51;29.81
77299;BME280;66361;52.034;20.656;2023-05-28T14:04:57;100222.88;;;22.31;29.53
77299;BME280;66361;52.034;20.656;2023-05-28T14:09:00;100218.84;;;22.51;28.16
77299;BME280;66361;52.034;20.656;2023-05-28T14:13:05;100211.63;;;22.28;32.09
77299;BME280;66361;52.034;20.656;2023-05-28T14:17:08;100214.81;;;22.31;28.34
77299;BME280;66361;52.034;20.656;2023-05-28T14:21:11;100216.16;;;22.43;28.68
77299;BME280;66361;52.034;20.656;2023-05-28T14:25:14;100206.25;;;22.36;28.94
77299;BME280;66361;52.034;20.656;2023-05-28T14:29:18;100194.78;;;22.50;29.88
77299;BME280;66361;52.034;20.656;2023-05-28T14:33:21;100200.53;;;22.06;27.48
77299;BME280;66361;52.034;20.656;2023-05-28T14:37:24;100195.00;;;22.16;28.08
77299;BME280;66361;52.034;20.656;2023-05-28T14:41:27;100203.56;;;22.28;30.28
77299;BME280;66361;52.034;20.656;2023-05-28T14:45:31;100206.25;;;22.36;32.38
77299;BME280;66361;52.034;20.656;2023-05-28T14:49:34;100195.81;;;22.41;28.23
77299;BME280;66361;52.034;20.656;2023-05-28T14:53:37;100188.41;;;22.43;29.43
77299;BME280;66361;52.034;20.656;2023-05-28T14:57:40;100185.25;;;22.15;29.97
77299;BME280;66361;52.034;20.656;2023-05-28T15:01:45;100180.22;;;22.12;28.62
77299;BME280;66361;52.034;20.656;2023-05-28T15:05:48;100173.34;;;22.26;29.00
77299;BME280;66361;52.034;20.656;2023-05-28T15:09:51;100180.88;;;22.30;29.35
77299;BME280;66361;52.034;20.656;2023-05-28T15:13:54;100172.81;;;21.98;30.77
77299;BME280;66361;52.034;20.656;2023-05-28T15:17:59;100173.50;;;22.16;30.68
77299;BME280;66361;52.034;20.656;2023-05-28T15:22:02;100159.53;;;22.29;29.00
77299;BME280;66361;52.034;20.656;2023-05-28T15:26:06;100167.44;;;22.22;30.16
77299;BME280;66361;52.034;20.656;2023-05-28T15:30:10;100163.56;;;22.00;29.69
77299;BME280;66361;52.034;20.656;2023-05-28T15:34:15;100161.41;;;21.88;30.01
77299;BME280;66361;52.034;20.656;2023-05-28T15:38:19;100169.97;;;21.83;30.45
77299;BME280;66361;52.034;20.656;2023-05-28T15:42:22;100168.13;;;21.84;31.02
77299;BME280;66361;52.034;20.656;2023-05-28T15:46:25;100158.56;;;21.73;30.68
77299;BME280;66361;52.034;20.656;2023-05-28T15:50:30;100162.91;;;21.82;31.92
77299;BME280;66361;52.034;20.656;2023-05-28T15:54:37;100157.47;;;21.34;31.91
77299;BME280;66361;52.034;20.656;2023-05-28T15:58:40;100144.81;;;21.18;32.51
77299;BME280;66361;52.034;20.656;2023-05-28T16:02:44;100137.59;;;21.10;35.26
77299;BME280;66361;52.034;20.656;2023-05-28T16:06:51;100142.41;;;20.91;33.93
77299;BME280;66361;52.034;20.656;2023-05-28T16:10:55;100147.75;;;20.83;33.66
77299;BME280;66361;52.034;20.656;2023-05-28T16:15:01;100135.34;;;20.82;35.04
77299;BME280;66361;52.034;20.656;2023-05-28T16:19:08;100137.31;;;20.79;34.17
77299;BME280;66361;52.034;20.656;2023-05-28T16:23:15;100139.81;;;20.73;34.45
77299;BME280;66361;52.034;20.656;2023-05-28T16:27:18;100143.22;;;20.83;34.49
77299;BME280;66361;52.034;20.656;2023-05-28T16:31:22;100138.78;;;20.66;33.50
77299;BME280;66361;52.034;20.656;2023-05-28T16:35:27;100133.84;;;20.45;34.67
77299;BME280;66361;52.034;20.656;2023-05-28T16:39:32;100137.94;;;20.40;35.68
77299;BME280;66361;52.034;20.656;2023-05-28T16:43:36;100135.22;;;20.31;35.44
77299;BME280;66361;52.034;20.656;2023-05-28T16:47:39;100141.44;;;20.06;37.70
77299;BME280;66361;52.034;20.656;2023-05-28T16:51:43;100142.16;;;19.91;35.81
77299;BME280;66361;52.034;20.656;2023-05-28T16:55:47;100150.56;;;19.96;36.31
77299;BME280;66361;52.034;20.656;2023-05-28T16:59:52;100135.97;;;19.72;35.38
77299;BME280;66361;52.034;20.656;2023-05-28T17:03:56;100137.97;;;19.70;35.59
77299;BME280;66361;52.034;20.656;2023-05-28T17:07:59;100142.56;;;19.60;34.97
77299;BME280;66361;52.034;20.656;2023-05-28T17:12:10;100132.81;;;19.42;35.96
77299;BME280;66361;52.034;20.656;2023-05-28T17:16:16;100133.59;;;19.34;35.05
77299;BME280;66361;52.034;20.656;2023-05-28T17:20:23;100142.53;;;19.25;35.41
77299;BME280;66361;52.034;20.656;2023-05-28T17:24:28;100130.22;;;19.14;36.12
77299;BME280;66361;52.034;20.656;2023-05-28T17:28:32;100127.91;;;19.02;36.37
77299;BME280;66361;52.034;20.656;2023-05-28T17:32:36;100122.47;;;18.94;36.27
77299;BME280;66361;52.034;20.656;2023-05-28T17:36:46;100123.97;;;18.78;36.89
77299;BME280;66361;52.034;20.656;2023-05-28T17:40:50;100118.28;;;18.54;37.79
77299;BME280;66361;52.034;20.656;2023-05-28T17:44:54;100125.97;;;18.30;41.76
77299;BME280;66361;52.034;20.656;2023-05-28T17:48:57;100127.31;;;18.07;40.83
77299;BME280;66361;52.034;20.656;2023-05-28T17:53:01;100133.25;;;17.81;42.75
77299;BME280;66361;52.034;20.656;2023-05-28T17:57:05;100131.88;;;17.58;42.96
77299;BME280;66361;52.034;20.656;2023-05-28T18:01:10;100136.63;;;17.35;44.44
77299;BME280;66361;52.034;20.656;2023-05-28T18:05:14;100136.19;;;17.11;47.98
77299;BME280;66361;52.034;20.656;2023-05-28T18:09:17;100136.81;;;16.84;49.12
77299;BME280;66361;52.034;20.656;2023-05-28T18:13:21;100133.34;;;16.54;47.51
77299;BME280;66361;52.034;20.656;2023-05-28T18:17:26;100134.28;;;16.22;48.71
77299;BME280;66361;52.034;20.656;2023-05-28T18:21:30;100133.44;;;15.91;50.69
77299;BME280;66361;52.034;20.656;2023-05-28T18:25:34;100134.31;;;15.60;48.47
77299;BME280;66361;52.034;20.656;2023-05-28T18:29:38;100132.97;;;15.34;48.96
77299;BME280;66361;52.034;20.656;2023-05-28T18:33:43;100128.94;;;15.08;50.51
77299;BME280;66361;52.034;20.656;2023-05-28T18:37:47;100129.59;;;14.78;53.46
77299;BME280;66361;52.034;20.656;2023-05-28T18:41:50;100123.97;;;14.49;54.64
77299;BME280;66361;52.034;20.656;2023-05-28T18:45:54;100128.53;;;14.25;55.32
77299;BME280;66361;52.034;20.656;2023-05-28T18:49:59;100143.31;;;13.94;58.47
77299;BME280;66361;52.034;20.656;2023-05-28T18:54:02;100140.00;;;13.68;58.50
77299;BME280;66361;52.034;20.656;2023-05-28T18:58:05;100137.41;;;13.44;59.45
77299;BME280;66361;52.034;20.656;2023-05-28T19:02:09;100142.38;;;13.25;61.08
77299;BME280;66361;52.034;20.656;2023-05-28T19:06:14;100153.56;;;13.05;60.19
77299;BME280;66361;52.034;20.656;2023-05-28T19:10:18;100144.41;;;12.85;61.09
77299;BME280;66361;52.034;20.656;2023-05-28T19:14:23;100145.00;;;12.65;62.58
77299;BME280;66361;52.034;20.656;2023-05-28T19:18:26;100151.69;;;12.45;63.01
77299;BME280;66361;52.034;20.656;2023-05-28T19:22:31;100166.63;;;12.34;63.01
77299;BME280;66361;52.034;20.656;2023-05-28T19:26:34;100161.44;;;12.20;64.43
77299;BME280;66361;52.034;20.656;2023-05-28T19:30:39;100164.31;;;12.04;64.25
77299;BME280;66361;52.034;20.656;2023-05-28T19:34:47;100162.69;;;11.89;65.84
77299;BME280;66361;52.034;20.656;2023-05-28T19:38:52;100157.59;;;11.73;66.46
77299;BME280;66361;52.034;20.656;2023-05-28T19:42:55;100158.75;;;11.56;68.32
77299;BME280;66361;52.034;20.656;2023-05-28T19:46:59;100152.97;;;11.37;69.60
77299;BME280;66361;52.034;20.656;2023-05-28T19:51:02;100167.00;;;11.25;71.42
77299;BME280;66361;52.034;20.656;2023-05-28T19:55:08;100161.53;;;11.14;72.25
77299;BME280;66361;52.034;20.656;2023-05-28T19:59:12;100165.72;;;11.04;73.92
77299;BME280;66361;52.034;20.656;2023-05-28T20:03:15;100163.00;;;10.91;74.14
77299;BME280;66361;52.034;20.656;2023-05-28T20:07:20;100163.69;;;10.81;76.41
77299;BME280;66361;52.034;20.656;2023-05-28T20:11:28;100158.25;;;10.69;77.91
77299;BME280;66361;52.034;20.656;2023-05-28T20:15:32;100164.28;;;10.57;79.27
77299;BME280;66361;52.034;20.656;2023-05-28T20:19:38;100171.81;;;10.49;81.85
77299;BME280;66361;52.034;20.656;2023-05-28T20:23:42;100178.22;;;10.45;83.10
77299;BME280;66361;52.034;20.656;2023-05-28T20:27:49;100172.59;;;10.37;84.00
77299;BME280;66361;52.034;20.656;2023-05-28T20:31:52;100168.81;;;10.27;84.91
77299;BME280;66361;52.034;20.656;2023-05-28T20:35:55;100171.19;;;10.17;85.43
77299;BME280;66361;52.034;20.656;2023-05-28T20:40:00;100173.44;;;10.09;84.74
77299;BME280;66361;52.034;20.656;2023-05-28T20:44:04;100169.94;;;9.95;85.16
77299;BME280;66361;52.034;20.656;2023-05-28T20:48:08;100160.88;;;9.85;87.36
77299;BME280;66361;52.034;20.656;2023-05-28T20:52:11;100166.69;;;9.76;88.11
77299;BME280;66361;52.034;20.656;2023-05-28T20:56:14;100174.31;;;9.66;87.70
77299;BME280;66361;52.034;20.656;2023-05-28T21:00:19;100170.66;;;9.53;87.49